Details From LTAC - Esenboga
To LTCC - Diyarbakir
Flight Number -
Tags Generated
Created
Modified
Stats Distance 362 nm / 671 km
Max Altitude 0 ft / 0 m
Waypoints 5
Social Downloads 0
Likes 0
Share VATSIM

Download

Looking for another format? Having issues loading an existing format? Contact us
Advertisement - Login to hide

Notes

Generated

Route

LTAC MARTI ERH DIYT LTCC

ID Type Via Altitude Latitude Longitude Leg Dist Tot Dist Heading (true) Name
O LTAC APT - 0 ft / 0 m 40.11406˚ 32.98383˚ - 0 nm - -
MARTI FIX - 0 ft / 0 m 39.40167˚ 35.18278˚ 110 nm 110 nm 112° / 114° -
ERH NDB - 0 ft / 0 m 38.46333˚ 38.11222˚ 147 nm 258 nm 111° / 113° ERHAC NDB
DIYT FIX - 0 ft / 0 m 37.90299˚ 40.19235˚ 103 nm 361 nm 108° / 110° -
O LTCC APT - 0 ft / 0 m 37.90915˚ 40.19498˚ 0 nm 362 nm 19° / 19° -

Altitude Profile

Advertisement - Login to hide

Weather


0- 5 10 15 20 25 30 35+ Temperature / ° C

Clouds and Precipitation
Forecast for 2017-12-11 18:00 UTC. Updated a minute ago

Ground ~20,000 ft ~40,000 ft Winds

LTAC

Details ICAO LTAC (ESB)
Name ESENBOGA
Region Turkey
Timezone Europe/Istanbul (UTC+3.0)
Stats Elevation 3,125 ft / 953 m (AMSL)
Location 40.128285° 32.995403°
Runways 2
Magnetic Variation 5.712° E

METAR

LTAC 111650Z VRB01KT 9999 FEW040 05/01 Q1026 NOSIG

Decode

TAF

Not found

Departure Runways

ID Width Length Bearing (true) Bearing (mag) Surface Threshold Offset Overrun Length
03L 148 ft / 45 m 12,334 ft / 3,760 m 36.19° 30.48° Asphalt 1,148 ft / 350 m 200 ft / 61 m
03R 197 ft / 60 m 12,258 ft / 3,736 m 35.29° 29.58° Asphalt 0 ft / 0 m 200 ft / 61 m
21L 197 ft / 60 m 12,258 ft / 3,736 m 215.31° 209.60° Asphalt 0 ft / 0 m 200 ft / 61 m
21R 148 ft / 45 m 12,334 ft / 3,760 m 216.21° 210.50° Asphalt 0 ft / 0 m 200 ft / 61 m

LTCC

Details ICAO LTCC (DIY)
Name DIYARBAKIR
Region Turkey
Timezone Europe/Istanbul (UTC+3.0)
Stats Elevation 2,251 ft / 686 m (AMSL)
Location 37.893898° 40.201017°
Runways 1
Magnetic Variation 5.638° E

METAR

LTCC 111650Z 25005KT CAVOK 03/M02 Q1027 NOSIG

Decode

TAF

Not found

Destination Runways

ID Width Length Bearing (true) Bearing (mag) Surface Threshold Offset Overrun Length
16 148 ft / 45 m 11,663 ft / 3,555 m 162.66° 157.02° Concrete 0 ft / 0 m 507 ft / 155 m
34 148 ft / 45 m 11,663 ft / 3,555 m 342.67° 337.03° Concrete 0 ft / 0 m 495 ft / 151 m

Popular Alternatives